Ink, Ohio
Current Conditions -  °F | °C
As of 10:53 AM on Monday 22 Dec 2014 (Local Time) from KFDY Reporting Station
Haze Haze  
Wind Chill: 26°   Ceiling: 4400
Heat Index: 33°   Visibility: 5mi
Dew Point: 27°   Wind: 8mph
Humidity: 78%   Direction: 110°ESE
Pressure: 30.01"   Gusts: NA
Location:  41.154°N, 83.2212°W
Report Text: KFDY 221553Z AUTO 11007KT 5SM HZ OVC044 01/M03 A3001 RMK AO2 SLP168 T00061028
Loading
Personal Weather Stations






























Interactive Weather Map New forecast layout! Learn more

10-Day Weather Forecast

Advertisements
Track Severe Weather on mobile